sensor_id;sensor_type;location;lat;lon;timestamp;temperature;humidity
5808;DHT22;2930;42.678;23.312;2023-06-05T11:31:29;28.10;67.10
5808;DHT22;2930;42.678;23.312;2023-06-05T11:33:56;28.60;65.80
5808;DHT22;2930;42.678;23.312;2023-06-05T11:36:22;28.90;65.00
5808;DHT22;2930;42.678;23.312;2023-06-05T11:38:54;29.20;64.10
5808;DHT22;2930;42.678;23.312;2023-06-05T11:41:23;29.40;62.30
5808;DHT22;2930;42.678;23.312;2023-06-05T11:43:51;29.40;62.30
5808;DHT22;2930;42.678;23.312;2023-06-05T11:48:46;29.90;64.40
5808;DHT22;2930;42.678;23.312;2023-06-05T11:51:12;30.30;63.20
5808;DHT22;2930;42.678;23.312;2023-06-05T11:53:44;31.10;62.10
5808;DHT22;2930;42.678;23.312;2023-06-05T11:56:14;31.50;61.20
5808;DHT22;2930;42.678;23.312;2023-06-05T12:03:43;32.10;57.90
5808;DHT22;2930;42.678;23.312;2023-06-05T12:06:10;32.20;60.90
5808;DHT22;2930;42.678;23.312;2023-06-05T12:08:39;32.30;59.60
5808;DHT22;2930;42.678;23.312;2023-06-05T12:11:26;32.40;58.40
5808;DHT22;2930;42.678;23.312;2023-06-05T12:13:55;32.60;58.80
5808;DHT22;2930;42.678;23.312;2023-06-05T12:16:35;33.00;59.20
5808;DHT22;2930;42.678;23.312;2023-06-05T12:19:14;33.30;58.60
5808;DHT22;2930;42.678;23.312;2023-06-05T12:21:41;33.70;58.60
5808;DHT22;2930;42.678;23.312;2023-06-05T12:24:07;34.20;58.00
5808;DHT22;2930;42.678;23.312;2023-06-05T12:26:51;34.60;56.70
5808;DHT22;2930;42.678;23.312;2023-06-05T12:29:20;35.00;55.50
5808;DHT22;2930;42.678;23.312;2023-06-05T12:31:47;34.80;53.60
5808;DHT22;2930;42.678;23.312;2023-06-05T12:34:12;34.40;53.50
5808;DHT22;2930;42.678;23.312;2023-06-05T12:36:41;33.80;57.80
5808;DHT22;2930;42.678;23.312;2023-06-05T12:39:10;33.60;58.80
5808;DHT22;2930;42.678;23.312;2023-06-05T12:41:36;33.20;57.20
5808;DHT22;2930;42.678;23.312;2023-06-05T12:44:05;32.80;58.70
5808;DHT22;2930;42.678;23.312;2023-06-05T12:46:32;32.50;61.20
5808;DHT22;2930;42.678;23.312;2023-06-05T12:49:03;32.40;60.30
5808;DHT22;2930;42.678;23.312;2023-06-05T12:51:29;32.60;58.90
5808;DHT22;2930;42.678;23.312;2023-06-05T12:53:55;32.90;59.20
5808;DHT22;2930;42.678;23.312;2023-06-05T12:56:24;33.10;57.50
5808;DHT22;2930;42.678;23.312;2023-06-05T12:58:55;33.20;57.60
5808;DHT22;2930;42.678;23.312;2023-06-05T13:01:25;33.30;59.20
5808;DHT22;2930;42.678;23.312;2023-06-05T13:03:51;33.10;57.50
5808;DHT22;2930;42.678;23.312;2023-06-05T13:06:18;32.70;58.00
5808;DHT22;2930;42.678;23.312;2023-06-05T13:08:44;32.40;57.60
5808;DHT22;2930;42.678;23.312;2023-06-05T13:11:11;32.30;59.40
5808;DHT22;2930;42.678;23.312;2023-06-05T13:13:37;32.10;59.00
5808;DHT22;2930;42.678;23.312;2023-06-05T13:16:03;32.10;58.70
5808;DHT22;2930;42.678;23.312;2023-06-05T13:18:31;31.90;58.30
5808;DHT22;2930;42.678;23.312;2023-06-05T13:20:56;31.60;59.40
5808;DHT22;2930;42.678;23.312;2023-06-05T13:23:22;31.30;60.50
5808;DHT22;2930;42.678;23.312;2023-06-05T13:25:48;30.70;60.30
5808;DHT22;2930;42.678;23.312;2023-06-05T13:28:13;29.60;60.10
5808;DHT22;2930;42.678;23.312;2023-06-05T13:30:39;29.20;61.40
5808;DHT22;2930;42.678;23.312;2023-06-05T13:33:05;28.60;63.90
5808;DHT22;2930;42.678;23.312;2023-06-05T13:35:30;28.30;64.80
5808;DHT22;2930;42.678;23.312;2023-06-05T13:40:22;28.30;65.60
5808;DHT22;2930;42.678;23.312;2023-06-05T13:42:48;28.40;64.80
5808;DHT22;2930;42.678;23.312;2023-06-05T13:45:16;28.70;65.40
5808;DHT22;2930;42.678;23.312;2023-06-05T13:47:42;29.40;63.50
5808;DHT22;2930;42.678;23.312;2023-06-05T13:50:07;29.60;63.30
5808;DHT22;2930;42.678;23.312;2023-06-05T13:52:33;29.40;62.80
5808;DHT22;2930;42.678;23.312;2023-06-05T13:54:59;29.10;63.00
5808;DHT22;2930;42.678;23.312;2023-06-05T13:57:25;28.90;64.20
5808;DHT22;2930;42.678;23.312;2023-06-05T13:59:50;28.60;64.30
5808;DHT22;2930;42.678;23.312;2023-06-05T14:09:34;27.10;67.40
5808;DHT22;2930;42.678;23.312;2023-06-05T14:12:00;26.90;67.90
5808;DHT22;2930;42.678;23.312;2023-06-05T14:19:18;26.50;67.70
5808;DHT22;2930;42.678;23.312;2023-06-05T14:29:03;26.20;68.20
5808;DHT22;2930;42.678;23.312;2023-06-05T14:31:29;26.20;67.70
5808;DHT22;2930;42.678;23.312;2023-06-05T14:33:55;26.20;67.30
5808;DHT22;2930;42.678;23.312;2023-06-05T14:53:24;25.60;69.20
5808;DHT22;2930;42.678;23.312;2023-06-05T14:58:16;25.30;69.30
5808;DHT22;2930;42.678;23.312;2023-06-05T15:00:42;25.20;70.20
5808;DHT22;2930;42.678;23.312;2023-06-05T15:03:08;25.00;70.60
5808;DHT22;2930;42.678;23.312;2023-06-05T15:12:53;24.50;71.50
5808;DHT22;2930;42.678;23.312;2023-06-05T15:15:23;24.40;71.40
5808;DHT22;2930;42.678;23.312;2023-06-05T15:20:18;24.20;72.10
5808;DHT22;2930;42.678;23.312;2023-06-05T15:22:44;24.10;72.50
5808;DHT22;2930;42.678;23.312;2023-06-05T15:27:36;24.30;72.70
5808;DHT22;2930;42.678;23.312;2023-06-05T15:30:03;24.40;72.20
5808;DHT22;2930;42.678;23.312;2023-06-05T15:34:56;24.50;72.60
5808;DHT22;2930;42.678;23.312;2023-06-05T15:37:24;24.50;72.90
5808;DHT22;2930;42.678;23.312;2023-06-05T15:39:50;24.50;72.80
5808;DHT22;2930;42.678;23.312;2023-06-05T15:42:33;24.40;72.30
5808;DHT22;2930;42.678;23.312;2023-06-05T15:45:25;24.40;72.60
5808;DHT22;2930;42.678;23.312;2023-06-05T15:50:20;24.00;73.20
5808;DHT22;2930;42.678;23.312;2023-06-05T15:52:46;24.00;73.20
5808;DHT22;2930;42.678;23.312;2023-06-05T15:55:11;23.90;73.30
5808;DHT22;2930;42.678;23.312;2023-06-05T15:57:37;24.00;73.50
5808;DHT22;2930;42.678;23.312;2023-06-05T16:00:03;24.00;73.50
5808;DHT22;2930;42.678;23.312;2023-06-05T16:09:47;23.50;74.80
5808;DHT22;2930;42.678;23.312;2023-06-05T16:17:05;23.20;75.30
5808;DHT22;2930;42.678;23.312;2023-06-05T16:19:31;23.20;75.30
5808;DHT22;2930;42.678;23.312;2023-06-05T16:21:57;23.10;75.80
5808;DHT22;2930;42.678;23.312;2023-06-05T16:24:23;23.00;75.50
5808;DHT22;2930;42.678;23.312;2023-06-05T16:26:49;23.00;75.90
5808;DHT22;2930;42.678;23.312;2023-06-05T16:29:15;22.90;76.30
5808;DHT22;2930;42.678;23.312;2023-06-05T16:31:41;22.80;75.90
5808;DHT22;2930;42.678;23.312;2023-06-05T16:34:13;22.80;76.30
5808;DHT22;2930;42.678;23.312;2023-06-05T16:36:39;22.60;76.10
5808;DHT22;2930;42.678;23.312;2023-06-05T16:39:05;22.60;76.10
5808;DHT22;2930;42.678;23.312;2023-06-05T16:41:32;22.60;76.20
5808;DHT22;2930;42.678;23.312;2023-06-05T16:43:58;22.60;76.60
5808;DHT22;2930;42.678;23.312;2023-06-05T16:46:24;22.50;76.60
5808;DHT22;2930;42.678;23.312;2023-06-05T16:48:50;22.50;77.00
5808;DHT22;2930;42.678;23.312;2023-06-05T16:51:17;22.50;77.10
5808;DHT22;2930;42.678;23.312;2023-06-05T16:53:42;22.50;77.20
5808;DHT22;2930;42.678;23.312;2023-06-05T16:56:08;22.40;76.80
5808;DHT22;2930;42.678;23.312;2023-06-05T16:58:36;22.40;76.50
5808;DHT22;2930;42.678;23.312;2023-06-05T17:01:02;22.40;76.70
5808;DHT22;2930;42.678;23.312;2023-06-05T17:05:57;22.20;76.40
5808;DHT22;2930;42.678;23.312;2023-06-05T17:08:22;22.20;76.50
5808;DHT22;2930;42.678;23.312;2023-06-05T17:15:40;21.90;76.80
5808;DHT22;2930;42.678;23.312;2023-06-05T17:18:07;21.80;77.00
5808;DHT22;2930;42.678;23.312;2023-06-05T17:20:33;21.70;77.30
5808;DHT22;2930;42.678;23.312;2023-06-05T17:22:58;21.70;77.60
5808;DHT22;2930;42.678;23.312;2023-06-05T17:25:24;21.70;77.40
5808;DHT22;2930;42.678;23.312;2023-06-05T17:30:16;21.50;77.30
5808;DHT22;2930;42.678;23.312;2023-06-05T17:32:42;21.50;77.50
5808;DHT22;2930;42.678;23.312;2023-06-05T17:35:07;21.40;77.60
5808;DHT22;2930;42.678;23.312;2023-06-05T17:37:33;21.40;77.70
5808;DHT22;2930;42.678;23.312;2023-06-05T17:39:59;21.30;77.60
5808;DHT22;2930;42.678;23.312;2023-06-05T17:42:27;21.30;77.60
5808;DHT22;2930;42.678;23.312;2023-06-05T17:44:52;21.20;78.10
5808;DHT22;2930;42.678;23.312;2023-06-05T17:47:18;21.20;78.00
5808;DHT22;2930;42.678;23.312;2023-06-05T17:49:43;21.20;78.00
5808;DHT22;2930;42.678;23.312;2023-06-05T17:52:09;21.00;78.90
5808;DHT22;2930;42.678;23.312;2023-06-05T17:59:27;20.90;78.50
5808;DHT22;2930;42.678;23.312;2023-06-05T18:01:53;20.90;78.60
5808;DHT22;2930;42.678;23.312;2023-06-05T18:04:19;20.90;78.90
5808;DHT22;2930;42.678;23.312;2023-06-05T18:06:45;20.80;78.80
5808;DHT22;2930;42.678;23.312;2023-06-05T18:09:11;20.80;79.00
5808;DHT22;2930;42.678;23.312;2023-06-05T18:11:41;20.70;79.60
5808;DHT22;2930;42.678;23.312;2023-06-05T18:14:08;20.70;79.40
5808;DHT22;2930;42.678;23.312;2023-06-05T18:16:33;20.60;79.40
5808;DHT22;2930;42.678;23.312;2023-06-05T18:18:59;20.50;79.70
5808;DHT22;2930;42.678;23.312;2023-06-05T18:21:25;20.50;79.70
5808;DHT22;2930;42.678;23.312;2023-06-05T18:23:51;20.50;79.70
5808;DHT22;2930;42.678;23.312;2023-06-05T18:26:20;20.40;80.10
5808;DHT22;2930;42.678;23.312;2023-06-05T18:28:47;20.40;79.80
5808;DHT22;2930;42.678;23.312;2023-06-05T18:31:13;20.30;80.40
5808;DHT22;2930;42.678;23.312;2023-06-05T18:33:41;20.30;80.40
5808;DHT22;2930;42.678;23.312;2023-06-05T18:38:35;20.20;80.90
5808;DHT22;2930;42.678;23.312;2023-06-05T18:41:01;20.20;80.70
5808;DHT22;2930;42.678;23.312;2023-06-05T18:43:27;20.10;80.70
5808;DHT22;2930;42.678;23.312;2023-06-05T18:45:53;20.10;80.90
5808;DHT22;2930;42.678;23.312;2023-06-05T18:48:19;20.10;80.90
5808;DHT22;2930;42.678;23.312;2023-06-05T18:50:45;20.00;81.20
5808;DHT22;2930;42.678;23.312;2023-06-05T18:53:10;20.00;81.40
5808;DHT22;2930;42.678;23.312;2023-06-05T18:55:37;20.00;80.80
5808;DHT22;2930;42.678;23.312;2023-06-05T18:58:03;20.00;81.10
5808;DHT22;2930;42.678;23.312;2023-06-05T19:00:30;20.00;81.00
5808;DHT22;2930;42.678;23.312;2023-06-05T19:02:57;19.90;81.20
5808;DHT22;2930;42.678;23.312;2023-06-05T19:05:23;19.90;81.10
5808;DHT22;2930;42.678;23.312;2023-06-05T19:07:49;19.90;81.00
5808;DHT22;2930;42.678;23.312;2023-06-05T19:10:15;19.90;81.10
5808;DHT22;2930;42.678;23.312;2023-06-05T19:12:41;20.00;81.00
5808;DHT22;2930;42.678;23.312;2023-06-05T19:15:07;19.90;81.00
5808;DHT22;2930;42.678;23.312;2023-06-05T19:22:24;19.80;81.40
5808;DHT22;2930;42.678;23.312;2023-06-05T19:24:50;19.80;81.60
5808;DHT22;2930;42.678;23.312;2023-06-05T19:27:19;19.90;81.40
5808;DHT22;2930;42.678;23.312;2023-06-05T19:29:46;19.80;81.80
5808;DHT22;2930;42.678;23.312;2023-06-05T19:32:12;19.80;81.80
5808;DHT22;2930;42.678;23.312;2023-06-05T19:34:38;19.70;82.00
5808;DHT22;2930;42.678;23.312;2023-06-05T19:37:04;19.70;81.80
5808;DHT22;2930;42.678;23.312;2023-06-05T19:41:55;19.80;81.80
5808;DHT22;2930;42.678;23.312;2023-06-05T19:44:21;19.70;81.90
5808;DHT22;2930;42.678;23.312;2023-06-05T19:46:47;19.70;81.60
5808;DHT22;2930;42.678;23.312;2023-06-05T19:49:13;19.70;82.10
5808;DHT22;2930;42.678;23.312;2023-06-05T19:51:39;19.60;81.90
5808;DHT22;2930;42.678;23.312;2023-06-05T19:54:08;19.60;81.40
5808;DHT22;2930;42.678;23.312;2023-06-05T19:56:34;19.50;81.60
5808;DHT22;2930;42.678;23.312;2023-06-05T19:59:00;19.50;81.20
5808;DHT22;2930;42.678;23.312;2023-06-05T20:01:25;19.50;81.20
5808;DHT22;2930;42.678;23.312;2023-06-05T20:03:51;19.50;80.70
5808;DHT22;2930;42.678;23.312;2023-06-05T20:08:46;19.40;80.30
5808;DHT22;2930;42.678;23.312;2023-06-05T20:11:12;19.50;79.80
5808;DHT22;2930;42.678;23.312;2023-06-05T20:13:38;19.40;79.80
5808;DHT22;2930;42.678;23.312;2023-06-05T20:16:05;19.40;80.00
5808;DHT22;2930;42.678;23.312;2023-06-05T20:18:31;19.40;79.60
5808;DHT22;2930;42.678;23.312;2023-06-05T20:20:58;19.40;79.60
5808;DHT22;2930;42.678;23.312;2023-06-05T20:23:24;19.40;79.50
5808;DHT22;2930;42.678;23.312;2023-06-05T20:25:50;19.40;79.70
5808;DHT22;2930;42.678;23.312;2023-06-05T20:28:15;19.30;79.40
5808;DHT22;2930;42.678;23.312;2023-06-05T20:30:41;19.30;79.00
5808;DHT22;2930;42.678;23.312;2023-06-05T20:33:07;19.30;78.40
5808;DHT22;2930;42.678;23.312;2023-06-05T20:35:34;19.30;77.60
5808;DHT22;2930;42.678;23.312;2023-06-05T20:38:04;19.30;78.20
5808;DHT22;2930;42.678;23.312;2023-06-05T20:40:36;19.20;78.10
5808;DHT22;2930;42.678;23.312;2023-06-05T20:43:06;19.20;77.30
5808;DHT22;2930;42.678;23.312;2023-06-05T20:45:34;19.20;77.60
5808;DHT22;2930;42.678;23.312;2023-06-05T20:48:07;19.20;77.30
5808;DHT22;2930;42.678;23.312;2023-06-05T20:50:43;19.20;76.50
5808;DHT22;2930;42.678;23.312;2023-06-05T20:53:15;19.20;76.70
5808;DHT22;2930;42.678;23.312;2023-06-05T20:55:42;19.20;76.20
5808;DHT22;2930;42.678;23.312;2023-06-05T20:58:08;19.10;76.50
5808;DHT22;2930;42.678;23.312;2023-06-05T21:00:34;19.10;76.00
5808;DHT22;2930;42.678;23.312;2023-06-05T21:03:00;19.10;75.20
5808;DHT22;2930;42.678;23.312;2023-06-05T21:05:25;19.10;75.30
5808;DHT22;2930;42.678;23.312;2023-06-05T21:07:51;19.10;75.30
5808;DHT22;2930;42.678;23.312;2023-06-05T21:10:17;19.10;74.40
5808;DHT22;2930;42.678;23.312;2023-06-05T21:12:43;19.10;74.60
5808;DHT22;2930;42.678;23.312;2023-06-05T21:15:12;19.10;74.10
5808;DHT22;2930;42.678;23.312;2023-06-05T21:17:38;19.10;74.30
5808;DHT22;2930;42.678;23.312;2023-06-05T21:20:07;19.10;73.90
5808;DHT22;2930;42.678;23.312;2023-06-05T21:22:36;19.10;74.20
5808;DHT22;2930;42.678;23.312;2023-06-05T21:29:54;19.00;73.80
5808;DHT22;2930;42.678;23.312;2023-06-05T21:32:20;19.00;73.50
5808;DHT22;2930;42.678;23.312;2023-06-05T21:34:46;19.00;72.70
5808;DHT22;2930;42.678;23.312;2023-06-05T21:37:13;19.00;73.50
5808;DHT22;2930;42.678;23.312;2023-06-05T21:39:40;19.00;72.40
5808;DHT22;2930;42.678;23.312;2023-06-05T21:42:06;18.90;73.10
5808;DHT22;2930;42.678;23.312;2023-06-05T21:44:39;18.90;72.80
5808;DHT22;2930;42.678;23.312;2023-06-05T21:47:06;18.90;72.90
5808;DHT22;2930;42.678;23.312;2023-06-05T21:51:58;18.80;73.00
5808;DHT22;2930;42.678;23.312;2023-06-05T22:01:42;18.80;72.00
5808;DHT22;2930;42.678;23.312;2023-06-05T22:04:09;18.70;72.50
5808;DHT22;2930;42.678;23.312;2023-06-05T22:11:29;18.70;72.40
5808;DHT22;2930;42.678;23.312;2023-06-05T22:13:58;18.60;71.90
5808;DHT22;2930;42.678;23.312;2023-06-05T22:16:25;18.60;71.40
5808;DHT22;2930;42.678;23.312;2023-06-05T22:18:53;18.60;71.50
5808;DHT22;2930;42.678;23.312;2023-06-05T22:21:19;18.50;70.90
5808;DHT22;2930;42.678;23.312;2023-06-05T22:23:49;18.50;71.50
5808;DHT22;2930;42.678;23.312;2023-06-05T22:26:15;18.40;71.50
5808;DHT22;2930;42.678;23.312;2023-06-05T22:28:42;18.40;71.70
5808;DHT22;2930;42.678;23.312;2023-06-05T22:31:09;18.30;71.30
5808;DHT22;2930;42.678;23.312;2023-06-05T22:33:35;18.30;72.00
5808;DHT22;2930;42.678;23.312;2023-06-05T22:36:01;18.20;71.60
5808;DHT22;2930;42.678;23.312;2023-06-05T22:40:56;18.10;71.90
5808;DHT22;2930;42.678;23.312;2023-06-05T22:45:48;18.00;72.10
5808;DHT22;2930;42.678;23.312;2023-06-05T22:48:14;18.00;71.20
5808;DHT22;2930;42.678;23.312;2023-06-05T22:50:43;18.00;71.80
5808;DHT22;2930;42.678;23.312;2023-06-05T23:00:30;17.90;72.20
5808;DHT22;2930;42.678;23.312;2023-06-05T23:02:57;17.80;72.50
5808;DHT22;2930;42.678;23.312;2023-06-05T23:05:23;17.90;71.90
5808;DHT22;2930;42.678;23.312;2023-06-05T23:10:15;17.80;72.80
5808;DHT22;2930;42.678;23.312;2023-06-05T23:12:41;17.80;72.50
5808;DHT22;2930;42.678;23.312;2023-06-05T23:15:07;17.80;72.60
5808;DHT22;2930;42.678;23.312;2023-06-05T23:17:33;17.70;72.80
5808;DHT22;2930;42.678;23.312;2023-06-05T23:19:59;17.70;72.90
5808;DHT22;2930;42.678;23.312;2023-06-05T23:24:50;17.70;72.50
5808;DHT22;2930;42.678;23.312;2023-06-05T23:27:16;17.70;72.60
5808;DHT22;2930;42.678;23.312;2023-06-05T23:44:19;17.50;72.90
5808;DHT22;2930;42.678;23.312;2023-06-05T23:49:12;17.40;73.00
5808;DHT22;2930;42.678;23.312;2023-06-05T23:51:38;17.40;73.30
5808;DHT22;2930;42.678;23.312;2023-06-05T23:56:29;17.30;74.10
